^^
Grace C. Lehan Memorial Weather Station Historical Data
Daily Summary for May 28, 2021 Units:  English    Metric   Both
Daily Weekly Monthly Yearly
  High: Low: Average:
Temperature: 64.1 °F 47.9 °F 57.1 °F
Dew Point: 50.8 °F 38.9 °F 44.6 °F
Humidity: 94% 45% 65%
Wind Speed: 5.4mph 0mph 1.2mph
Wind Gust: 15mph - -
Wind- - ESE
Pressure: 30.11 in 29.96 in -
Precipitation: 0.36 in    
 
 
Tabular Data for May 28, 2021
Time Temperature Dew Point Pressure Wind Wind Speed Wind Gust Humidity Rainfall Rate (Hourly) solar
00:09 60.7 °F 47 °F 30.01 in Calm   1 mph 60.5% 0.00 in 0 W/m2
00:14 60.5 °F 47 °F 30.01 in NNW 0.2 mph 4 mph 61% 0.00 in 0 W/m2
00:19 60.3 °F 46.8 °F 30.01 in NNW 0.7 mph 5 mph 61% 0.00 in 0 W/m2
00:24 60.2 °F 46.7 °F 30.02 in NW 0.6 mph 5 mph 61% 0.00 in 0 W/m2
00:29 60.1 °F 46.6 °F 30.02 in Calm   5 mph 61% 0.00 in 0 W/m2
00:34 60 °F 46.8 °F 30.02 in Calm   5 mph 61.6% 0.00 in 0 W/m2
00:39 59.9 °F 46.9 °F 30.02 in Calm     62% 0.00 in 0 W/m2
00:44 59.8 °F 46.8 °F 30.02 in NNW 0.1 mph 2 mph 62% 0.00 in 0 W/m2
00:49 59.7 °F 46.9 °F 30.02 in NNW 0.1 mph 2 mph 62.5% 0.00 in 0 W/m2
00:54 59.6 °F 47 °F 30.02 in NNW 0.3 mph 3 mph 63% 0.00 in 0 W/m2
00:59 59.4 °F 46.9 °F 30.02 in Calm   3 mph 63% 0.00 in 0 W/m2
01:04 59.3 °F 46.7 °F 30.02 in Calm   3 mph 63% 0.00 in 0 W/m2
01:09 59.2 °F 46.7 °F 30.02 in NNW 0.9 mph 5 mph 63.2% 0.00 in 0 W/m2
01:14 59.1 °F 46.7 °F 30.02 in Calm   5 mph 63.5% 0.00 in 0 W/m2
01:19 59.1 °F 46.9 °F 30.02 in NNW 1.7 mph 7 mph 64% 0.00 in 0 W/m2
01:24 59 °F 46.7 °F 30.02 in NNE 0.8 mph 9 mph 63.6% 0.00 in 0 W/m2
01:29 59 °F 46.9 °F 30.02 in North 0.4 mph 9 mph 64% 0.00 in 0 W/m2
01:34 59 °F 46.9 °F 30.02 in North 0.5 mph 9 mph 64% 0.00 in 0 W/m2
01:39 59 °F 46.9 °F 30.02 in NNE 0.3 mph 7 mph 64% 0.00 in 0 W/m2
01:44 59.1 °F 46.9 °F 30.02 in NE 0.5 mph 7 mph 64% 0.00 in 0 W/m2
01:49 59.1 °F 46.8 °F 30.02 in NE 0.4 mph 7 mph 63.6% 0.00 in 0 W/m2
01:54 59.1 °F 46.5 °F 30.02 in North 1.4 mph 7 mph 62.8% 0.00 in 0 W/m2
01:59 59.1 °F 46.2 °F 30.02 in NE 0.7 mph 7 mph 62.2% 0.00 in 0 W/m2
02:04 59.1 °F 46.1 °F 30.02 in NNW 1 mph 7 mph 62% 0.00 in 0 W/m2
02:09 59.1 °F 46.1 °F 30.02 in North 0.2 mph 7 mph 62.1% 0.00 in 0 W/m2
02:14 59 °F 46 °F 30.03 in NE 0.4 mph 7 mph 62% 0.00 in 0 W/m2
02:19 58.9 °F 45.9 °F 30.03 in NNE 0.9 mph 10 mph 62% 0.00 in 0 W/m2
02:24 58.8 °F 45.5 °F 30.03 in East 0.6 mph 10 mph 61.1% 0.00 in 0 W/m2
02:29 58.8 °F 45.4 °F 30.03 in ENE 1.2 mph 10 mph 61% 0.00 in 0 W/m2
02:34 58.7 °F 45.4 °F 30.03 in ENE 1 mph 10 mph 61.1% 0.00 in 0 W/m2
02:39 58.7 °F 45.2 °F 30.02 in ENE 1.4 mph 6 mph 60.9% 0.00 in 0 W/m2
02:44 58.6 °F 44.6 °F 30.02 in ENE 1.8 mph 10 mph 59.6% 0.00 in 0 W/m2
02:49 58.5 °F 43.9 °F 30.03 in NE 2.3 mph 10 mph 58.1% 0.00 in 0 W/m2
02:54 58.5 °F 43.7 °F 30.03 in NE 1.2 mph 11 mph 57.8% 0.00 in 0 W/m2
02:59 58.4 °F 42.7 °F 30.03 in ENE 3.2 mph 11 mph 55.8% 0.00 in 0 W/m2
03:04 58.3 °F 42.2 °F 30.03 in NE 3.9 mph 11 mph 55% 0.00 in 0 W/m2
03:09 58.2 °F 42.1 °F 30.03 in NE 2.7 mph 8 mph 55% 0.00 in 0 W/m2
03:14 58.1 °F 42.1 °F 30.03 in ENE 1 mph 8 mph 55.1% 0.00 in 0 W/m2
03:19 58 °F 42.1 °F 30.03 in ENE 0.4 mph 8 mph 55.4% 0.00 in 0 W/m2
03:24 57.9 °F 41.7 °F 30.03 in NE 1.6 mph 8 mph 54.7% 0.00 in 0 W/m2
03:29 57.7 °F 41.4 °F 30.03 in NE 2.7 mph 9 mph 54.5% 0.00 in 0 W/m2
03:34 57.6 °F 41.7 °F 30.04 in ENE 0.3 mph 9 mph 55.2% 0.00 in 0 W/m2
03:39 57.5 °F 41.8 °F 30.04 in NNE 0.7 mph 8 mph 55.7% 0.00 in 0 W/m2
03:44 57.4 °F 41.4 °F 30.04 in NE 1.6 mph 10 mph 55% 0.00 in 0 W/m2
03:49 57.3 °F 41.3 °F 30.04 in NE 0.5 mph 10 mph 55% 0.00 in 0 W/m2
03:54 57.2 °F 41.3 °F 30.05 in NE 0.8 mph 10 mph 55.2% 0.00 in 0 W/m2
03:59 57.1 °F 41 °F 30.05 in ENE 1.2 mph 10 mph 54.9% 0.00 in 0 W/m2
04:09 56.8 °F 40.2 °F 30.05 in North 1 mph 7 mph 53.5% 0.00 in 0 W/m2
04:14 56.7 °F 40.3 °F 30.05 in East 0.7 mph 7 mph 54% 0.00 in 0 W/m2
04:19 56.7 °F 40.4 °F 30.05 in ENE 0.3 mph 7 mph 54.4% 0.00 in 0 W/m2
04:24 56.6 °F 40.2 °F 30.05 in ENE 0.8 mph 7 mph 54.1% 0.00 in 0 W/m2
04:29 56.5 °F 40.1 °F 30.05 in ENE 0.6 mph 7 mph 54% 0.00 in 0 W/m2
04:34 56.4 °F 40.5 °F 30.05 in NNE 0.5 mph 7 mph 55% 0.00 in 0 W/m2
04:39 56.3 °F 40.2 °F 30.05 in ENE 0.9 mph 6 mph 54.6% 0.00 in 0 W/m2
04:44 56.3 °F 40.2 °F 30.05 in East 0.1 mph 6 mph 54.7% 0.00 in 0 W/m2
04:49 56.2 °F 40.2 °F 30.06 in ENE 0.4 mph 6 mph 55% 0.00 in 0 W/m2
04:54 56 °F 40 °F 30.06 in ENE 0.1 mph 6 mph 54.8% 0.00 in 0 W/m2
04:59 55.9 °F 40 °F 30.06 in NE 0.2 mph 8 mph 55% 0.00 in 0 W/m2
05:04 55.8 °F 40 °F 30.06 in NNW 0.8 mph 8 mph 55.3% 0.00 in 0 W/m2
05:09 55.6 °F 39.9 °F 30.06 in NNE 0.2 mph 7 mph 55.3% 0.00 in 0 W/m2
05:14 55.5 °F 39.7 °F 30.06 in NE 0.6 mph 7 mph 55.3% 0.00 in 0 W/m2
05:19 55.3 °F 39.6 °F 30.06 in NE 0.6 mph 7 mph 55.5% 0.00 in 0 W/m2
05:24 55.1 °F 39.7 °F 30.07 in NNE 0.2 mph 7 mph 56.1% 0.00 in 0 W/m2
05:29 54.9 °F 39.6 °F 30.07 in NNW 0.2 mph 7 mph 56.2% 0.00 in 0 W/m2
05:34 54.7 °F 39.4 °F 30.07 in North 0.1 mph 7 mph 56.3% 0.00 in 5 W/m2
05:39 54.5 °F 39.3 °F 30.07 in Calm   3 mph 56.4% 0.00 in 12 W/m2
05:44 54.3 °F 39.4 °F 30.07 in NNE 0.1 mph 3 mph 57% 0.00 in 16 W/m2
05:49 54.2 °F 39.3 °F 30.07 in Calm   3 mph 57% 0.00 in 16 W/m2
05:54 54.1 °F 39.2 °F 30.07 in Calm   3 mph 57% 0.00 in 19 W/m2
05:59 54 °F 39.2 °F 30.07 in East 0.2 mph 5 mph 57.3% 0.00 in 21 W/m2
06:04 53.9 °F 39.1 °F 30.08 in NE 0.5 mph 5 mph 57.1% 0.00 in 21 W/m2
06:09 53.9 °F 39.4 °F 30.08 in NE 0.1 mph 3 mph 57.9% 0.00 in 23 W/m2
06:14 53.8 °F 39.2 °F 30.08 in NE 0.1 mph 3 mph 57.5% 0.00 in 25 W/m2
06:19 53.8 °F 39.3 °F 30.08 in NE 0.8 mph 7 mph 57.8% 0.00 in 32 W/m2
06:24 53.8 °F 38.9 °F 30.09 in NE 1 mph 8 mph 57% 0.00 in 53 W/m2
06:29 53.9 °F 39.4 °F 30.09 in NNE 0.2 mph 8 mph 57.8% 0.00 in 65 W/m2
06:34 54 °F 39.2 °F 30.09 in ENE 0.4 mph 8 mph 57.2% 0.00 in 62 W/m2
06:39 54.1 °F 39.3 °F 30.09 in East 0.7 mph 9 mph 57.2% 0.00 in 63 W/m2
06:44 54.1 °F 39.1 °F 30.09 in East 0.5 mph 9 mph 56.7% 0.00 in 67 W/m2
06:49 54 °F 39.2 °F 30.09 in East 0.6 mph 9 mph 57.1% 0.00 in 60 W/m2
06:54 54 °F 39.2 °F 30.10 in ENE 0.3 mph 9 mph 57.2% 0.00 in 49 W/m2
06:59 53.9 °F 39.4 °F 30.10 in ESE 0.2 mph 9 mph 57.8% 0.00 in 49 W/m2
07:04 53.9 °F 39.3 °F 30.10 in East 0.3 mph 9 mph 57.5% 0.00 in 60 W/m2
07:09 53.8 °F 39.1 °F 30.09 in NE 1.5 mph 6 mph 57.3% 0.00 in 125 W/m2
07:14 54 °F 40 °F 30.09 in ENE 0.5 mph 7 mph 59% 0.00 in 156 W/m2
07:19 54.5 °F 39.9 °F 30.08 in ENE 0.9 mph 7 mph 57.9% 0.00 in 193 W/m2
07:24 54.8 °F 40 °F 30.08 in ENE 0.8 mph 7 mph 57.3% 0.00 in 77 W/m2
07:29 54.8 °F 40.4 °F 30.09 in ENE 0.2 mph 7 mph 58.1% 0.00 in 132 W/m2
07:34 55 °F 40.9 °F 30.10 in East 0.5 mph 7 mph 58.8% 0.00 in 367 W/m2
07:39 55.9 °F 41.8 °F 30.10 in North 0.2 mph 5 mph 59.1% 0.00 in 367 W/m2
07:44 56.8 °F 41.5 °F 30.10 in ENE 0.3 mph 5 mph 56.4% 0.00 in 223 W/m2
07:49 57.3 °F 41.5 °F 30.10 in NNE 0.1 mph 5 mph 55.3% 0.00 in 427 W/m2
07:54 58 °F 41.9 °F 30.10 in NNE 0.3 mph 5 mph 54.9% 0.00 in 418 W/m2
07:59 58.4 °F 41.2 °F 30.10 in East 0.1 mph 5 mph 52.8% 0.00 in 515 W/m2
08:00 58.4 °F 41.8 °F 30.10 in Calm   5 mph 54% 0.00 in 515 W/m2
08:09 58.5 °F 41.2 °F 30.11 in ENE 0.6 mph 3 mph 52.5% 0.00 in 302 W/m2
08:14 58.4 °F 41.4 °F 30.11 in NNE 0.7 mph 4 mph 53.1% 0.00 in 330 W/m2
08:19 58.3 °F 41.7 °F 30.11 in NE 0.3 mph 4 mph 53.9% 0.00 in 276 W/m2
08:24 58.1 °F 41.2 °F 30.11 in NE 0.9 mph 6 mph 53.3% 0.00 in 295 W/m2
08:29 58.1 °F 41.2 °F 30.11 in NE 0.5 mph 6 mph 53.4% 0.00 in 388 W/m2
08:34 58 °F 40.8 °F 30.11 in NE 0.7 mph 6 mph 52.7% 0.00 in 476 W/m2
08:39 57.9 °F 41.6 °F 30.11 in NNW 1.3 mph 6 mph 54.4% 0.00 in 308 W/m2
08:44 58.2 °F 40.6 °F 30.11 in ENE 2.2 mph 10 mph 51.8% 0.00 in 292 W/m2
08:49 58.3 °F 40.3 °F 30.11 in NNE 0.8 mph 10 mph 51.1% 0.00 in 295 W/m2
08:54 58.4 °F 40.3 °F 30.11 in NNE 0.4 mph 10 mph 51% 0.00 in 318 W/m2
08:59 58.6 °F 40.5 °F 30.11 in NNW 2 mph 14 mph 51% 0.00 in 868 W/m2
09:04 59.3 °F 42.1 °F 30.11 in NW 0.9 mph 14 mph 52.8% 0.00 in 868 W/m2
09:09 60.1 °F 41 °F 30.11 in NNE 2.5 mph 7 mph 49.1% 0.00 in 313 W/m2
09:14 60.6 °F 41.6 °F 30.11 in North 1.5 mph 10 mph 49.4% 0.00 in 914 W/m2
09:19 60.8 °F 41.9 °F 30.11 in NNE 1.6 mph 10 mph 49.6% 0.00 in 914 W/m2
09:24 61.3 °F 42.1 °F 30.11 in North 1.5 mph 10 mph 49.2% 0.00 in 786 W/m2
09:29 61.8 °F 41.8 °F 30.11 in North 2.1 mph 12 mph 47.9% 0.00 in 786 W/m2
09:34 61.9 °F 41.3 °F 30.11 in North 1 mph 12 mph 46.6% 0.00 in 476 W/m2
09:39 61.7 °F 41.1 °F 30.10 in NE 1.9 mph 11 mph 46.7% 0.00 in 557 W/m2
09:44 61.7 °F 42.2 °F 30.10 in North 1.2 mph 11 mph 48.6% 0.00 in 557 W/m2
09:49 62 °F 42.3 °F 30.10 in North 2.8 mph 11 mph 48.3% 0.00 in 795 W/m2
09:54 62.1 °F 41.8 °F 30.10 in NNE 1.4 mph 11 mph 47.3% 0.00 in 958 W/m2
09:59 62.1 °F 42.4 °F 30.10 in NNE 2.2 mph 11 mph 48.3% 0.00 in 831 W/m2
10:04 62 °F 42.2 °F 30.10 in NNE 0.5 mph 11 mph 48.1% 0.00 in 570 W/m2
10:09 62.1 °F 42.9 °F 30.10 in NNW 1.2 mph 7 mph 49.3% 0.00 in 589 W/m2
10:14 62.3 °F 42.2 °F 30.10 in ENE 1.7 mph 7 mph 47.7% 0.00 in 555 W/m2
10:19 61.8 °F 41.8 °F 30.09 in NE 0.4 mph 7 mph 47.9% 0.00 in 548 W/m2
10:24 62 °F 42.8 °F 30.09 in North 0.9 mph 10 mph 49.4% 0.00 in 548 W/m2
10:29 62.9 °F 43.6 °F 30.09 in NW 1.1 mph 10 mph 49.4% 0.00 in 687 W/m2
10:30 63.4 °F 43.9 °F 30.09 in NNE 1 mph 11 mph 49% 0.00 in 525 W/m2
11:00 62.1 °F 40.5 °F 30.08 in NE 2 mph 10 mph 45% 0.00 in 447 W/m2
11:30 62.3 °F 41.8 °F 30.07 in ENE 1 mph 10 mph 47% 0.00 in 511 W/m2
12:04 61.7 °F 43.7 °F 30.06 in NW 2.5 mph 5 mph 51.6% 0.00 in 223 W/m2
12:09 61.6 °F 43.5 °F 30.07 in NW 1.4 mph 7 mph 51.5% 0.00 in 279 W/m2
12:14 61.5 °F 43.6 °F 30.06 in NW 1 mph 7 mph 51.7% 0.00 in 294 W/m2
12:19 61.5 °F 43 °F 30.06 in NW 1.6 mph 10 mph 50.7% 0.00 in 283 W/m2
12:24 61.4 °F 43.4 °F 30.06 in NW 0.8 mph 10 mph 51.5% 0.00 in 295 W/m2
12:29 61.4 °F 43.5 °F 30.06 in WNW 0.9 mph 10 mph 51.7% 0.00 in 306 W/m2
12:34 61.3 °F 43.2 °F 30.06 in ENE 0.6 mph 10 mph 51.4% 0.00 in 378 W/m2
12:39 61.2 °F 43.5 °F 30.05 in North 0.5 mph 4 mph 52.2% 0.00 in 378 W/m2
12:44 61.1 °F 42.9 °F 30.05 in ENE 0.5 mph 4 mph 51.2% 0.00 in 531 W/m2
12:49 61.1 °F 43.9 °F 30.05 in NNE 1.4 mph 9 mph 53.1% 0.00 in 531 W/m2
12:54 61.6 °F 44.1 °F 30.04 in NE 1.5 mph 9 mph 52.6% 0.00 in 592 W/m2
12:59 62 °F 44.2 °F 30.04 in ENE 0.9 mph 9 mph 52.1% 0.00 in 717 W/m2
13:04 62.4 °F 44.9 °F 30.04 in NNE 2.5 mph 9 mph 52.7% 0.00 in 684 W/m2
13:09 62.9 °F 45 °F 30.03 in North 1.1 mph 9 mph 52% 0.00 in 527 W/m2
13:14 63.4 °F 44.3 °F 30.03 in ENE 1.8 mph 9 mph 49.7% 0.00 in 417 W/m2
13:19 63.4 °F 44.8 °F 30.03 in North 1.1 mph 9 mph 50.7% 0.00 in 371 W/m2
13:24 63.4 °F 45.1 °F 30.03 in NNW 0.2 mph 9 mph 51.2% 0.00 in 369 W/m2
13:29 63.3 °F 44.6 °F 30.03 in NNE 0.5 mph 9 mph 50.5% 0.00 in 464 W/m2
13:34 63.4 °F 45.2 °F 30.03 in NNW 1.6 mph 9 mph 51.4% 0.00 in 512 W/m2
13:39 63.7 °F 44.9 °F 30.03 in NNW 3.5 mph 8 mph 50.5% 0.00 in 563 W/m2
13:44 63.9 °F 45.5 °F 30.03 in NNW 2.2 mph 10 mph 51.2% 0.00 in 494 W/m2
13:49 64.1 °F 44.8 °F 30.03 in NE 1.7 mph 10 mph 49.5% 0.00 in 499 W/m2
13:54 64 °F 44.6 °F 30.03 in North 1 mph 10 mph 49.1% 0.00 in 536 W/m2
13:59 64 °F 44.5 °F 30.02 in North 2.5 mph 10 mph 49.1% 0.00 in 480 W/m2
14:04 63.8 °F 44.5 °F 30.02 in ENE 1.5 mph 10 mph 49.4% 0.00 in 508 W/m2
14:09 63.6 °F 44.5 °F 30.03 in NNW 1.5 mph 7 mph 49.7% 0.00 in 294 W/m2
14:14 63.3 °F 44.1 °F 30.02 in North 0.6 mph 7 mph 49.4% 0.00 in 320 W/m2
14:19 63.2 °F 44.3 °F 30.02 in NNW 1.8 mph 7 mph 50.1% 0.00 in 512 W/m2
14:24 63.4 °F 44.5 °F 30.02 in NNW 2.5 mph 12 mph 50.2% 0.00 in 533 W/m2
14:29 63.7 °F 44.6 °F 30.02 in North 0.6 mph 12 mph 49.9% 0.00 in 483 W/m2
14:34 64 °F 45.1 °F 30.02 in NW 1.6 mph 12 mph 50.2% 0.00 in 410 W/m2
14:39 64.1 °F 45.4 °F 30.01 in North 1 mph 6 mph 50.6% 0.00 in 578 W/m2
14:44 64.1 °F 44.3 °F 30.01 in North 2 mph 9 mph 48.4% 0.00 in 548 W/m2
14:49 64.1 °F 44.5 °F 30.01 in SSW 2.3 mph 10 mph 48.8% 0.00 in 489 W/m2
14:54 64.1 °F 44 °F 30.01 in ENE 2.9 mph 10 mph 48% 0.00 in 325 W/m2
14:59 63.8 °F 44.3 °F 30.00 in ENE 0.3 mph 10 mph 49% 0.00 in 320 W/m2
15:04 63.7 °F 45 °F 30.00 in NE 2.5 mph 11 mph 50.5% 0.00 in 285 W/m2
15:09 63.7 °F 44.5 °F 30.00 in NE 0.8 mph 11 mph 49.7% 0.00 in 301 W/m2
15:14 63.7 °F 44.4 °F 30.00 in East 2.3 mph 11 mph 49.4% 0.00 in 257 W/m2
15:19 63.6 °F 44.8 °F 29.99 in ENE 0.8 mph 11 mph 50.3% 0.00 in 202 W/m2
15:24 63.6 °F 44.1 °F 29.99 in East 1.2 mph 11 mph 49.1% 0.00 in 269 W/m2
15:29 63.5 °F 44.4 °F 29.98 in ENE 2 mph 11 mph 49.7% 0.00 in 279 W/m2
15:34 63.6 °F 44.7 °F 29.98 in ENE 1.5 mph 11 mph 50% 0.00 in 218 W/m2
15:39 63.6 °F 44 °F 29.98 in NE 1.6 mph 11 mph 48.8% 0.00 in 128 W/m2
15:44 63.3 °F 44.2 °F 29.98 in NE 1.3 mph 11 mph 49.6% 0.00 in 267 W/m2
15:49 63.1 °F 44.4 °F 29.98 in NE 1.3 mph 11 mph 50.4% 0.00 in 272 W/m2
15:54 63.2 °F 44.4 °F 29.98 in ENE 1.1 mph 11 mph 50.3% 0.00 in 272 W/m2
15:59 63.2 °F 44.3 °F 29.97 in NE 3.6 mph 11 mph 50% 0.00 in 255 W/m2
16:04 63.2 °F 43.7 °F 29.97 in ENE 0.4 mph 2 mph 49% 0.00 in 185 W/m2
16:09 63.2 °F 44.3 °F 29.97 in ENE 2.2 mph 9 mph 50.1% 0.00 in 200 W/m2
16:14 63.1 °F 43.9 °F 29.97 in NE 2.9 mph 12 mph 49.4% 0.00 in 179 W/m2
16:19 63.1 °F 43.8 °F 29.97 in ENE 2.8 mph 12 mph 49.3% 0.00 in 130 W/m2
16:24 62.9 °F 43.7 °F 29.97 in ENE 2 mph 12 mph 49.4% 0.00 in 98 W/m2
16:29 62.8 °F 43.7 °F 29.97 in NE 3.1 mph 12 mph 49.6% 0.00 in 90 W/m2
16:34 62.5 °F 43.6 °F 29.96 in ENE 2.6 mph 12 mph 50% 0.00 in 60 W/m2
16:39 62.2 °F 44.4 °F 29.96 in East 1.2 mph 9 mph 52.1% 0.00 in 56 W/m2
16:44 62 °F 44.8 °F 29.96 in ENE 1.5 mph 10 mph 53.3% 0.00 in 60 W/m2
16:49 61.8 °F 44.9 °F 29.96 in NNE 1.8 mph 10 mph 53.8% 0.00 in 84 W/m2
16:54 61.6 °F 45.1 °F 29.96 in ENE 2.2 mph 10 mph 54.8% 0.00 in 72 W/m2
16:59 61.3 °F 45.2 °F 29.96 in ENE 0.1 mph 10 mph 55.4% 0.00 in 65 W/m2
17:04 61 °F 46 °F 29.96 in ENE 1.3 mph 10 mph 57.6% 0.00 in 46 W/m2
17:09 60.8 °F 47.7 °F 29.97 in NNW 0.5 mph 7 mph 62.1% 0.00 in 28 W/m2
17:14 60.5 °F 47.9 °F 29.97 in North 0.2 mph 7 mph 63.1% 0.00 in 21 W/m2
17:19 60.1 °F 48.5 °F 29.98 in Calm   7 mph 65.5% 0.00 in 19 W/m2
17:24 59.7 °F 49.2 °F 29.98 in Calm   7 mph 68.1% 0.01 in 14 W/m2
17:29 59.4 °F 50.5 °F 29.99 in Calm   7 mph 72.3% 0.01 in 12 W/m2
17:34 58.9 °F 50.8 °F 29.99 in NE 0.1 mph 7 mph 74.7% 0.02 in 18 W/m2
17:39 58.2 °F 50.2 °F 29.99 in Calm   1 mph 74.6% 0.02 in 28 W/m2
17:44 57.3 °F 49.2 °F 29.98 in Calm   3 mph 74.3% 0.02 in 30 W/m2
17:49 56.6 °F 49.1 °F 29.98 in East 0.2 mph 5 mph 76% 0.03 in 32 W/m2
17:54 56 °F 49.1 °F 29.98 in Calm   5 mph 77.5% 0.03 in 37 W/m2
17:59 55.6 °F 49.4 °F 29.99 in Calm   5 mph 79.5% 0.03 in 30 W/m2
18:04 55.3 °F 49.4 °F 29.99 in East 0.1 mph 5 mph 80.6% 0.03 in 28 W/m2
18:09 55 °F 49.6 °F 29.99 in East 0.1 mph 3 mph 81.9% 0.04 in 28 W/m2
18:14 54.8 °F 50 °F 29.99 in ENE 0.2 mph 3 mph 83.5% 0.04 in 14 W/m2
18:19 54.7 °F 50.3 °F 29.99 in Calm   3 mph 85% 0.04 in 14 W/m2
18:24 54.5 °F 50.1 °F 29.99 in Calm   3 mph 85% 0.04 in 12 W/m2
18:29 54.1 °F 49.6 °F 29.99 in ENE 0.3 mph 3 mph 84.5% 0.05 in 12 W/m2
18:34 53.7 °F 49.3 °F 29.99 in Calm   3 mph 84.9% 0.05 in 12 W/m2
18:39 53.5 °F 49.2 °F 29.98 in East 0.1 mph 3 mph 85.5% 0.04 in 12 W/m2
18:44 53.1 °F 48.8 °F 29.99 in Calm   3 mph 85.4% 0.04 in 12 W/m2
18:49 52.8 °F 48.7 °F 29.98 in ENE 0.6 mph 5 mph 86% 0.04 in 14 W/m2
18:54 52.6 °F 48.7 °F 29.99 in Calm   5 mph 86.7% 0.05 in 12 W/m2
18:59 52.5 °F 48.7 °F 29.99 in NNE 0.1 mph 5 mph 87% 0.05 in 5 W/m2
19:04 52.4 °F 49 °F 29.99 in Calm   5 mph 88% 0.05 in 7 W/m2
19:09 52.3 °F 48.9 °F 29.99 in Calm     88% 0.03 in 7 W/m2
19:14 52.3 °F 49 °F 29.99 in NNE 0.1 mph 2 mph 88.6% 0.03 in 0 W/m2
19:19 52.3 °F 49.1 °F 29.99 in Calm   2 mph 89% 0.03 in 0 W/m2
19:24 52.2 °F 49.3 °F 29.99 in Calm   2 mph 89.7% 0.04 in 0 W/m2
19:29 52.1 °F 49.3 °F 30.00 in Calm   2 mph 90% 0.04 in 0 W/m2
19:34 51.9 °F 49.1 °F 30.00 in Calm   2 mph 90% 0.04 in 0 W/m2
19:39 51.8 °F 48.9 °F 30.00 in NNW 0.6 mph 6 mph 90% 0.02 in 0 W/m2
19:44 51.5 °F 48.7 °F 29.99 in Calm   6 mph 90% 0.02 in 0 W/m2
19:49 51.3 °F 48.4 °F 29.99 in NW 1.4 mph 7 mph 90% 0.02 in 0 W/m2
19:54 51.1 °F 48.2 °F 30.00 in NNW 2.1 mph 7 mph 90% 0.03 in 0 W/m2
19:59 50.8 °F 47.9 °F 29.99 in NNW 1.5 mph 7 mph 90% 0.03 in 0 W/m2
20:04 50.4 °F 47.6 °F 29.98 in Calm     90% 0.03 in 0 W/m2
20:09 50.3 °F 47.7 °F 29.98 in NE 1.2 mph 6 mph 90.8% 0.03 in 0 W/m2
20:14 50.1 °F 47.5 °F 29.98 in North 1.1 mph 6 mph 91% 0.03 in 0 W/m2
20:19 50 °F 47.6 °F 29.98 in NNW 0.3 mph 6 mph 91.6% 0.03 in 0 W/m2
20:24 49.8 °F 47.2 °F 29.98 in ENE 1 mph 6 mph 91% 0.04 in 0 W/m2
20:29 49.6 °F 47.3 °F 29.98 in ENE 1.2 mph 6 mph 91.7% 0.04 in 0 W/m2
20:34 49.5 °F 47.2 °F 29.98 in NE 1.2 mph 6 mph 92% 0.04 in 0 W/m2
20:39 49.3 °F 47.1 °F 29.98 in ENE 1.4 mph 6 mph 92% 0.02 in 0 W/m2
20:44 49.2 °F 47 °F 29.99 in ENE 2.6 mph 7 mph 92% 0.02 in 0 W/m2
20:49 49.2 °F 47.2 °F 29.99 in NNE 0.8 mph 7 mph 92.8% 0.02 in 0 W/m2
20:54 49.2 °F 47.3 °F 29.98 in NNE 0.4 mph 7 mph 93% 0.03 in 0 W/m2
20:59 49.2 °F 47.3 °F 29.99 in NE 1.4 mph 7 mph 93% 0.03 in 0 W/m2
21:04 49.3 °F 47.4 °F 29.98 in ENE 3.1 mph 9 mph 93% 0.03 in 0 W/m2
21:09 49.4 °F 47.4 °F 29.99 in ENE 2.9 mph 10 mph 93% 0.01 in 0 W/m2
21:14 49.5 °F 47.6 °F 29.99 in ENE 3.9 mph 12 mph 93.2% 0.01 in 0 W/m2
21:19 49.6 °F 47.9 °F 29.99 in ENE 3.5 mph 12 mph 93.8% 0.01 in 0 W/m2
21:24 49.8 °F 48.2 °F 30.00 in ENE 3.2 mph 12 mph 94% 0.02 in 0 W/m2
21:29 49.9 °F 48.3 °F 29.99 in ENE 3.8 mph 12 mph 94% 0.02 in 0 W/m2
21:34 50 °F 48.3 °F 29.99 in ENE 3.7 mph 12 mph 94% 0.02 in 0 W/m2
21:39 50.1 °F 48.4 °F 30.00 in East 2.1 mph 12 mph 94% 0.02 in 0 W/m2
21:44 50.1 °F 48.4 °F 30.01 in ENE 1.1 mph 12 mph 94% 0.03 in 0 W/m2
21:49 50.1 °F 48.4 °F 30.00 in East 3.3 mph 12 mph 94% 0.03 in 0 W/m2
21:54 50 °F 48.4 °F 29.99 in East 3.9 mph 12 mph 94% 0.03 in 0 W/m2
21:59 50 °F 48.3 °F 29.98 in East 5.4 mph 12 mph 94% 0.04 in 0 W/m2
22:04 49.9 °F 48.3 °F 29.97 in ENE 4.2 mph 12 mph 94% 0.04 in 0 W/m2
22:09 49.9 °F 48.3 °F 29.98 in NE 1.6 mph 11 mph 94% 0.04 in 0 W/m2
22:14 49.9 °F 48.3 °F 29.98 in ENE 4.8 mph 11 mph 94% 0.05 in 0 W/m2
22:19 50 °F 48.3 °F 29.97 in NE 2.9 mph 11 mph 94% 0.05 in 0 W/m2
22:24 49.9 °F 48.3 °F 29.99 in ENE 2.8 mph 11 mph 94% 0.06 in 0 W/m2
22:29 49.9 °F 48.2 °F 30.00 in NE 4.5 mph 13 mph 94% 0.06 in 0 W/m2
22:34 49.7 °F 48 °F 30.00 in ENE 5.2 mph 14 mph 94% 0.06 in 0 W/m2
22:39 49.5 °F 47.8 °F 30.00 in ENE 4.3 mph 14 mph 94% 0.06 in 0 W/m2
22:44 49.4 °F 47.8 °F 30.01 in NE 1.3 mph 14 mph 94% 0.07 in 0 W/m2
22:49 49.4 °F 47.8 °F 30.01 in ENE 2.6 mph 14 mph 94% 0.08 in 0 W/m2
22:54 49.4 °F 47.8 °F 30.01 in ENE 1.5 mph 14 mph 94% 0.09 in 0 W/m2
22:59 49.5 °F 47.8 °F 30.00 in ENE 2.3 mph 14 mph 94% 0.10 in 0 W/m2
23:04 49.4 °F 47.7 °F 29.99 in ENE 4.1 mph 14 mph 94% 0.10 in 0 W/m2
23:09 49 °F 47.4 °F 29.99 in ENE 1.8 mph 11 mph 94% 0.09 in 0 W/m2
23:14 48.8 °F 47.2 °F 29.99 in NE 3.4 mph 13 mph 94% 0.11 in 0 W/m2
23:19 48.7 °F 47.1 °F 30.00 in NE 2.3 mph 15 mph 94% 0.12 in 0 W/m2
23:24 48.7 °F 47 °F 30.00 in ENE 2.4 mph 15 mph 94% 0.13 in 0 W/m2
23:29 48.6 °F 46.9 °F 29.98 in ENE 4.3 mph 15 mph 94% 0.15 in 0 W/m2
23:34 48.5 °F 46.8 °F 29.99 in NE 2.9 mph 15 mph 94% 0.15 in 0 W/m2
23:39 48.3 °F 46.7 °F 29.99 in ENE 1.7 mph 9 mph 94% 0.14 in 0 W/m2
23:44 48.2 °F 46.6 °F 29.99 in NE 3.4 mph 10 mph 94% 0.16 in 0 W/m2
23:49 48.1 °F 46.5 °F 29.98 in ENE 3 mph 10 mph 94% 0.17 in 0 W/m2
23:54 48 °F 46.4 °F 29.98 in ENE 3.8 mph 15 mph 94% 0.19 in 0 W/m2
23:59 47.9 °F 46.3 °F 29.97 in ENE 3.2 mph 15 mph 94% 0.20 in 0 W/m2
Hartford County Weather
Compliments of Weather Underground - 4 mb